Terminal Aerodrome Forecast
Issued by NWS

Home | Current Version | Previous Version | Text Only | Print | Product List | Glossary On
Versions: 1 2 3 4 5 6 7 8 9 10 11 12 13 14 15 16 17 18 19 20
000
FTUS44 KBMX 280540
TAFTOI
TAF
KTOI 280540Z 2806/0106 15005KT 6SM BR OVC005
     FM280900 13004KT 2SM -DZ BR OVC004
      TEMPO 2811/2814 1/4SM FG VV001
     FM281600 15006KT P6SM VCSH OVC008
     FM281900 18010KT P6SM SCT007 BKN025=

USA.gov is the U.S. government's official web portal to all federal, state and local government web resources and services.